Main page
METAR-TAF:

METAR-TAF

Airports :

RAF Benson

Benson, England

latitude: 51-37N, longitude: 001-05W, elevation: 63 m

Current weather observation

The report was made 43 minutes ago, at 21:20 UTC
Wind 2 kt from the Northwest
Temperature 6°C
Humidity 93%
Pressure 1025 hPa
Visibility 10 km or more

METAR: EGUB 222120Z AUTO 32002KT 9999 SCT058/// OVC080/// 06/05 Q1025

Time: 23:03 (22:03 UTC)

Forecast

The report was made 5 hours and 46 minutes ago, at 16:17 UTC
Forecast valid from 22 at 18 UTC to 23 at 03 UTC
Wind 3 kt from variable directions
Visibility 10 km or more
Broken clouds at a height of 3000 ft
Temporary
from 22 at 18 UTC to 22 at 21 UTC
Broken clouds at a height of 2200 ft

TAF: EGUB 221617Z 2218/2303 VRB03KT 9999 BKN030 TEMPO 2218/2221 BKN022

Weather observations and forecasts of more than 4000 airports (METAR and TAF reports).

The available stations are represented by yellow and red dots on the map.

Hover mouse over dot to see the name of the station.

Then click to see weather observations and forecasts.

To change the map : click on the green buttons with a black cross to zoom in, on the green button with a dash to zoom out, or on the green arrows for adjacent maps.


METAR-TAF: